Aérodrome :
LOGIN :

S'inscrire | Disclaimer

   EN    FR    IT 

 










Légende :    VFR   VFR Marginal   IFR   IFR Intensif   IFR Très Intensif
Visi : 
Plafond : 
>= 8 km
>= 3000ft
5 à 8 km
1000 à 3000 ft
1500m à 5 km
500 à 1000 ft
800 à 1500m
200 à 500 ft
< 800m
< 200 ft
Symboles :   Orages  Brouillard  Fortes neiges  Fortes précipitations  Vent > 20 kt
SIGMETs :   Divers  Orages  Givrage  Turbulence  Onde Orograph.  Cendres Volcan.






- Altitude de l'aérodrome : 20 ft


EBFN - Koksijde

DERNIER METAR :
  • 150025Z AUTO 04005KT 5000 BKN110/// 03/02 Q1002 WHT

METARs EXPIRÉS :
  • 142355Z AUTO 05004KT 6000 OVC120/// 03/03 Q1003 WHT
  • 142325Z AUTO 05005KT 6000 BKN110/// BKN210/// 03/02 Q1003 WHT
  • 142314Z AUTO 06003KT 2900 BR BKN110/// BKN210/// 03/02 Q1003 YLO
  • 142303Z AUTO 06003KT 4100 BR FEW041/// BKN120/// 03/03 Q1003 GRN
  • 142245Z AUTO VRB02KT 4000 BR FEW041/// BKN120/// 03/03 Q1003 GRN
  • 142233Z AUTO VRB02KT 3400 BR SCT041/// BKN120/// 03/02 Q1003 YLO
  • 142155Z AUTO 06003KT 4900 BR BKN039/// 03/02 Q1003 GRN

TAF TAF EBFN
Valide du 14 à 19h jusqu'au 15 à 07h UTC


141541Z 1419/1507 08010KT 9999 FEW020 SCT030
PROB40
TEMPO 1504/1507 BKN010



MET'MAP, la Météo Aéronautique d'un coup d'oeil ! - Copyright ORBIFLY Décembre 2007 - Disclaimer

ORBIFLY MET'MAP TEAM :

Programmation & Développement : Alexandra Zaïnal
Conception & Développement : Baudouin d'Aumeries
Co-Programmation & Développement : Marc-Olivier Méhu
Soutien technique & logistique : Manuel Goepfert

Contact : metmap@orbifly.com




SOURCES & CREDITS :

   NOAA